Time;durP1;ratioP1;P1;durP2;ratioP2;P2;SDS_P1;SDS_P2;PMS_P1;PMS_P2;Temp;Humidity;BMP_temperature;BMP_pressure;BME280_temperature;BME280_humidity;BME280_pressure;Samples;Min_cycle;Max_cycle;Signal;HPM_P1;HPM_P2
2023/09/14 00:00:50;;;;;;;6.43;1.03;;;;;;;;;;5092490;28;20411;-85
2023/09/14 00:03:16;;;;;;;4.33;0.73;;;;;;;;;;5091021;28;20496;-82
2023/09/14 00:05:42;;;;;;;2.27;0.53;;;;;;;;;;5092650;28;20402;-83
2023/09/14 00:08:09;;;;;;;3.90;0.50;;;;;;;;;;5092966;28;20472;-83
2023/09/14 00:10:35;;;;;;;2.50;0.67;;;;;;;;;;5092937;28;20400;-85
2023/09/14 00:13:01;;;;;;;3.00;0.63;;;;;;;;;;5091606;28;20416;-85
2023/09/14 00:15:27;;;;;;;4.83;1.40;;;;;;;;;;5092935;28;20545;-82
2023/09/14 00:17:53;;;;;;;4.80;0.73;;;;;;;;;;5092955;28;20414;-85
2023/09/14 00:20:23;;;;;;;6.90;1.70;;;;;;;;;;5096538;28;20479;-81
2023/09/14 00:22:52;;;;;;;4.87;1.13;;;;;;;;;;5096803;28;20418;-83
2023/09/14 00:25:18;;;;;;;4.80;1.47;;;;;;;;;;5096968;28;20422;-85
2023/09/14 00:27:44;;;;;;;6.10;1.00;;;;;;;;;;5096797;28;20570;-83
2023/09/14 00:30:10;;;;;;;5.30;1.37;;;;;;;;;;5096844;28;20434;-84
2023/09/14 00:32:40;;;;;;;6.87;1.07;;;;;;;;;;5096771;28;20423;-83
2023/09/14 00:35:06;;;;;;;4.57;1.17;;;;;;;;;;5095306;28;20425;-81
2023/09/14 00:37:32;;;;;;;3.13;1.10;;;;;;;;;;5096546;28;20858;-80
2023/09/14 00:39:58;;;;;;;4.30;1.00;;;;;;;;;;5096625;28;20445;-80
2023/09/14 00:42:24;;;;;;;4.30;1.00;;;;;;;;;;5096547;28;20506;-81
2023/09/14 00:44:51;;;;;;;5.77;1.23;;;;;;;;;;5096580;28;20405;-82
2023/09/14 00:47:17;;;;;;;3.13;0.97;;;;;;;;;;5096409;28;20531;-81
2023/09/14 00:49:43;;;;;;;4.77;1.40;;;;;;;;;;5096437;28;20786;-82
2023/09/14 00:52:10;;;;;;;5.50;1.10;;;;;;;;;;5096066;28;20409;-82
2023/09/14 00:54:37;;;;;;;3.33;0.80;;;;;;;;;;5096314;28;20436;-81
2023/09/14 00:57:03;;;;;;;5.17;1.43;;;;;;;;;;5096276;28;20470;-82
2023/09/14 00:59:29;;;;;;;5.07;1.10;;;;;;;;;;5096220;28;20451;-81
2023/09/14 01:01:55;;;;;;;4.07;1.10;;;;;;;;;;5096139;28;20466;-81
2023/09/14 01:04:21;;;;;;;5.60;1.53;;;;;;;;;;5096281;28;20895;-81
2023/09/14 01:06:47;;;;;;;2.20;0.87;;;;;;;;;;5095765;28;20510;-81
2023/09/14 01:09:12;;;;;;;6.00;1.37;;;;;;;;;;5096136;28;20415;-81
2023/09/14 01:11:38;;;;;;;4.63;0.90;;;;;;;;;;5096052;28;20407;-80
2023/09/14 01:14:10;;;;;;;4.40;2.10;;;;;;;;;;5094791;28;20425;-81
2023/09/14 01:16:40;;;;;;;5.17;1.10;;;;;;;;;;5096183;28;20497;-81
2023/09/14 01:19:12;;;;;;;5.03;0.90;;;;;;;;;;5096347;28;20887;-81
2023/09/14 01:21:49;;;;;;;2.77;0.87;;;;;;;;;;5095544;28;20722;-82
2023/09/14 01:24:20;;;;;;;2.30;0.60;;;;;;;;;;5086259;28;20473;-82
2023/09/14 01:26:47;;;;;;;2.60;0.53;;;;;;;;;;5075502;28;20462;-81
2023/09/14 01:29:12;;;;;;;3.93;0.50;;;;;;;;;;5075144;28;20426;-82
2023/09/14 01:31:38;;;;;;;5.47;1.33;;;;;;;;;;5075516;28;20410;-81
2023/09/14 01:34:04;;;;;;;3.63;0.60;;;;;;;;;;5075285;28;20911;-82
2023/09/14 01:36:51;;;;;;;2.67;0.70;;;;;;;;;;5075043;28;20180;-81
2023/09/14 01:39:18;;;;;;;4.13;0.87;;;;;;;;;;5075256;28;20418;-83
2023/09/14 01:41:44;;;;;;;2.80;0.43;;;;;;;;;;5075222;28;20887;-81
2023/09/14 01:44:10;;;;;;;4.00;0.93;;;;;;;;;;5075138;28;20967;-82
2023/09/14 01:46:36;;;;;;;4.00;1.13;;;;;;;;;;5075132;28;20601;-83
2023/09/14 01:49:02;;;;;;;4.20;0.60;;;;;;;;;;5075078;28;20399;-82
2023/09/14 01:51:29;;;;;;;5.13;1.17;;;;;;;;;;5073457;28;20524;-81
2023/09/14 01:53:55;;;;;;;2.03;0.77;;;;;;;;;;5074987;28;20406;-81
2023/09/14 01:56:21;;;;;;;5.47;0.73;;;;;;;;;;5074896;28;21045;-80
2023/09/14 01:58:47;;;;;;;8.60;0.87;;;;;;;;;;5073635;28;20430;-81
2023/09/14 02:01:13;;;;;;;4.13;1.50;;;;;;;;;;5074902;28;20472;-81
2023/09/14 02:03:39;;;;;;;3.90;0.97;;;;;;;;;;5074642;28;20632;-80
2023/09/14 02:06:05;;;;;;;5.93;1.13;;;;;;;;;;5074383;28;20507;-81
2023/09/14 02:08:31;;;;;;;2.67;0.93;;;;;;;;;;5074723;28;20202;-81
2023/09/14 02:10:57;;;;;;;5.40;1.00;;;;;;;;;;5074620;28;20411;-84
2023/09/14 02:13:23;;;;;;;4.53;1.00;;;;;;;;;;5074605;28;20461;-82
2023/09/14 02:15:50;;;;;;;6.73;1.03;;;;;;;;;;5074547;28;20413;-80
2023/09/14 02:18:16;;;;;;;3.20;1.17;;;;;;;;;;5074574;28;20450;-82
2023/09/14 02:20:42;;;;;;;2.83;1.27;;;;;;;;;;5074193;28;20418;-81
2023/09/14 02:23:09;;;;;;;3.57;0.80;;;;;;;;;;5074585;28;20410;-80
2023/09/14 02:25:35;;;;;;;4.27;1.07;;;;;;;;;;5074334;28;20412;-81
2023/09/14 02:28:01;;;;;;;8.03;1.47;;;;;;;;;;5074144;28;20982;-83
2023/09/14 02:30:27;;;;;;;4.27;0.60;;;;;;;;;;5074334;28;20404;-81
2023/09/14 02:32:53;;;;;;;3.83;0.80;;;;;;;;;;5074277;28;20896;-81
2023/09/14 02:35:19;;;;;;;4.20;1.03;;;;;;;;;;5072538;28;20421;-81
2023/09/14 02:37:45;;;;;;;1.87;1.00;;;;;;;;;;5074097;28;20412;-81
2023/09/14 02:40:11;;;;;;;5.70;1.00;;;;;;;;;;5073856;28;20436;-80
2023/09/14 02:42:37;;;;;;;4.37;1.10;;;;;;;;;;5073258;28;20940;-82
2023/09/14 02:45:04;;;;;;;3.80;1.00;;;;;;;;;;5074068;28;20415;-81
2023/09/14 02:47:30;;;;;;;4.00;1.17;;;;;;;;;;5073808;28;20462;-80
2023/09/14 02:49:56;;;;;;;2.50;0.80;;;;;;;;;;5073535;28;20914;-86
2023/09/14 02:52:22;;;;;;;3.90;0.43;;;;;;;;;;5073866;28;20412;-81
2023/09/14 02:54:48;;;;;;;2.30;1.10;;;;;;;;;;5073748;28;20751;-82
2023/09/14 02:57:14;;;;;;;2.00;1.03;;;;;;;;;;5073669;28;20206;-82
2023/09/14 02:59:40;;;;;;;2.90;0.83;;;;;;;;;;5072408;28;20539;-81
2023/09/14 03:02:06;;;;;;;3.27;0.83;;;;;;;;;;5073501;28;20556;-81
2023/09/14 03:04:32;;;;;;;3.50;0.93;;;;;;;;;;5073570;28;20413;-81
2023/09/14 03:06:58;;;;;;;3.77;0.90;;;;;;;;;;5073122;28;20470;-81
2023/09/14 03:09:23;;;;;;;3.13;0.97;;;;;;;;;;5073508;28;20447;-81
2023/09/14 03:11:49;;;;;;;2.70;0.50;;;;;;;;;;5072157;28;20429;-81
2023/09/14 03:14:15;;;;;;;4.37;0.97;;;;;;;;;;5073416;28;20414;-82
2023/09/14 03:16:41;;;;;;;2.33;0.60;;;;;;;;;;5073362;28;20420;-81
2023/09/14 03:19:07;;;;;;;4.47;0.90;;;;;;;;;;5073334;28;20415;-81
2023/09/14 03:21:33;;;;;;;3.27;0.77;;;;;;;;;;5073002;28;20410;-81
2023/09/14 03:23:59;;;;;;;3.00;1.00;;;;;;;;;;5073288;28;20919;-82
2023/09/14 03:26:28;;;;;;;2.73;1.17;;;;;;;;;;5073266;28;20453;-81
2023/09/14 03:28:54;;;;;;;1.00;0.50;;;;;;;;;;5071990;28;20432;-80
2023/09/14 03:31:20;;;;;;;2.13;0.57;;;;;;;;;;5073196;28;20428;-81
2023/09/14 03:33:47;;;;;;;3.27;0.83;;;;;;;;;;5073250;28;20417;-81
2023/09/14 03:36:13;;;;;;;4.77;0.60;;;;;;;;;;5071641;28;20421;-82
2023/09/14 03:38:39;;;;;;;1.23;0.50;;;;;;;;;;5073099;28;20452;-81
2023/09/14 03:41:05;;;;;;;3.17;0.63;;;;;;;;;;5073111;28;20448;-81
2023/09/14 03:43:31;;;;;;;2.10;0.33;;;;;;;;;;5073071;28;20486;-79
2023/09/14 03:45:57;;;;;;;3.63;0.43;;;;;;;;;;5073067;28;20414;-80
2023/09/14 03:48:23;;;;;;;2.47;0.40;;;;;;;;;;5071749;28;20476;-80
2023/09/14 03:50:51;;;;;;;1.63;0.73;;;;;;;;;;5072554;28;20433;-81
2023/09/14 03:53:17;;;;;;;3.10;1.47;;;;;;;;;;5072892;28;20425;-80
2023/09/14 03:55:43;;;;;;;4.47;1.10;;;;;;;;;;5073025;28;20482;-81
2023/09/14 03:58:09;;;;;;;2.13;1.10;;;;;;;;;;5073020;28;20417;-79
2023/09/14 04:00:35;;;;;;;3.47;1.03;;;;;;;;;;5072949;28;20417;-80
2023/09/14 04:03:01;;;;;;;2.07;0.57;;;;;;;;;;5072714;28;20457;-80
2023/09/14 04:05:28;;;;;;;1.70;0.50;;;;;;;;;;5072515;28;20414;-81
2023/09/14 04:07:54;;;;;;;3.77;1.40;;;;;;;;;;5072735;28;20829;-81
2023/09/14 04:10:20;;;;;;;3.30;0.80;;;;;;;;;;5072844;28;20401;-80
2023/09/14 04:12:46;;;;;;;1.90;0.90;;;;;;;;;;5072801;28;20417;-82
2023/09/14 04:15:12;;;;;;;2.50;0.50;;;;;;;;;;5071464;28;20451;-80
2023/09/14 04:17:38;;;;;;;3.23;0.60;;;;;;;;;;5072738;28;20518;-81
2023/09/14 04:20:10;;;;;;;2.60;0.90;;;;;;;;;;5072351;28;20440;-81
2023/09/14 04:22:39;;;;;;;3.13;1.00;;;;;;;;;;5072726;28;20781;-81
2023/09/14 04:25:08;;;;;;;2.37;0.90;;;;;;;;;;5072708;28;20405;-81
2023/09/14 04:27:34;;;;;;;4.70;0.80;;;;;;;;;;5072500;28;20472;-80
2023/09/14 04:30:00;;;;;;;3.60;1.60;;;;;;;;;;5072537;28;20415;-81
2023/09/14 04:32:26;;;;;;;3.13;0.87;;;;;;;;;;5071257;28;20439;-81
2023/09/14 04:34:52;;;;;;;2.60;0.70;;;;;;;;;;5070947;28;20453;-81
2023/09/14 04:37:18;;;;;;;4.47;0.90;;;;;;;;;;5072549;28;20891;-82
2023/09/14 04:39:45;;;;;;;3.17;0.83;;;;;;;;;;5071229;28;20509;-81
2023/09/14 04:42:11;;;;;;;3.20;1.10;;;;;;;;;;5072341;28;20407;-81
2023/09/14 04:44:37;;;;;;;5.37;1.23;;;;;;;;;;5072437;28;20418;-81
2023/09/14 04:47:03;;;;;;;5.20;0.97;;;;;;;;;;5072356;28;20958;-80
2023/09/14 04:49:29;;;;;;;2.33;0.53;;;;;;;;;;5070810;28;20425;-80
2023/09/14 04:51:55;;;;;;;2.00;0.57;;;;;;;;;;5072399;28;20418;-80
2023/09/14 04:54:21;;;;;;;3.80;0.90;;;;;;;;;;5072335;28;20451;-81
2023/09/14 04:56:46;;;;;;;2.20;0.70;;;;;;;;;;5072298;28;20510;-82
2023/09/14 04:59:12;;;;;;;2.70;0.97;;;;;;;;;;5083984;28;20416;-81
2023/09/14 05:01:38;;;;;;;2.97;1.00;;;;;;;;;;5091738;28;20421;-82
2023/09/14 05:04:04;;;;;;;3.33;0.70;;;;;;;;;;5092095;28;20771;-81
2023/09/14 05:06:30;;;;;;;4.03;1.43;;;;;;;;;;5095117;28;20451;-80
2023/09/14 05:08:58;;;;;;;3.03;0.90;;;;;;;;;;5095519;28;20422;-82
2023/09/14 05:11:24;;;;;;;3.10;1.43;;;;;;;;;;5095438;28;20968;-81
2023/09/14 05:13:49;;;;;;;3.43;0.90;;;;;;;;;;5094982;28;20618;-80
2023/09/14 05:16:15;;;;;;;2.77;0.90;;;;;;;;;;5095311;28;20495;-80
2023/09/14 05:18:41;;;;;;;1.70;0.97;;;;;;;;;;5095085;28;20928;-80
2023/09/14 05:21:07;;;;;;;3.87;1.10;;;;;;;;;;5094815;28;20412;-81
2023/09/14 05:23:33;;;;;;;2.70;1.03;;;;;;;;;;5095110;28;20407;-82
2023/09/14 05:25:59;;;;;;;2.73;1.43;;;;;;;;;;5095183;28;20465;-86
2023/09/14 05:28:25;;;;;;;5.40;1.20;;;;;;;;;;5095064;28;20963;-80
2023/09/14 05:30:51;;;;;;;4.30;1.40;;;;;;;;;;5095117;28;20400;-80
2023/09/14 05:33:18;;;;;;;4.30;0.80;;;;;;;;;;5095119;28;20405;-80
2023/09/14 05:35:43;;;;;;;4.27;1.50;;;;;;;;;;5093852;28;20445;-82
2023/09/14 05:38:10;;;;;;;4.67;1.13;;;;;;;;;;5095542;28;21018;-79
2023/09/14 05:40:36;;;;;;;5.47;0.83;;;;;;;;;;5095532;28;20414;-84
2023/09/14 05:43:02;;;;;;;5.47;1.70;;;;;;;;;;5111242;28;20424;-82
2023/09/14 05:45:28;;;;;;;3.87;1.00;;;;;;;;;;5095366;28;20429;-80
2023/09/14 05:47:54;;;;;;;2.57;1.03;;;;;;;;;;5095248;28;20473;-79
2023/09/14 05:50:20;;;;;;;3.00;1.13;;;;;;;;;;5094934;28;20399;-79
2023/09/14 05:52:45;;;;;;;2.87;0.70;;;;;;;;;;5094128;28;20407;-79
2023/09/14 05:55:11;;;;;;;3.57;1.27;;;;;;;;;;5110956;28;20406;-80
2023/09/14 05:57:37;;;;;;;6.37;1.67;;;;;;;;;;5095141;28;20419;-82
2023/09/14 06:00:10;;;;;;;2.33;1.07;;;;;;;;;;5095263;28;20402;-80
2023/09/14 06:02:36;;;;;;;7.67;1.30;;;;;;;;;;5110550;28;20469;-79
2023/09/14 06:05:01;;;;;;;5.13;1.47;;;;;;;;;;5094663;28;20489;-81
2023/09/14 06:07:27;;;;;;;6.23;1.67;;;;;;;;;;5094916;28;20996;-80
2023/09/14 06:09:53;;;;;;;5.37;1.53;;;;;;;;;;5094883;28;20931;-80
2023/09/14 06:12:20;;;;;;;5.30;1.47;;;;;;;;;;5094567;28;20169;-80
2023/09/14 06:14:46;;;;;;;5.07;0.90;;;;;;;;;;5110391;28;20230;-80
2023/09/14 06:17:12;;;;;;;3.53;1.33;;;;;;;;;;5109366;28;20900;-80
2023/09/14 06:19:38;;;;;;;2.40;1.03;;;;;;;;;;5094377;28;20404;-80
2023/09/14 06:22:05;;;;;;;4.30;1.23;;;;;;;;;;5094688;28;20183;-81
2023/09/14 06:24:31;;;;;;;4.77;1.30;;;;;;;;;;5094613;28;20901;-82
2023/09/14 06:26:57;;;;;;;4.43;1.20;;;;;;;;;;5094563;28;20809;-82
2023/09/14 06:29:23;;;;;;;3.43;0.70;;;;;;;;;;5094627;28;20422;-81
2023/09/14 06:31:50;;;;;;;3.63;1.67;;;;;;;;;;5094610;28;20406;-82
2023/09/14 06:34:16;;;;;;;2.37;0.70;;;;;;;;;;5094043;28;20485;-83
2023/09/14 06:36:42;;;;;;;3.37;1.10;;;;;;;;;;5094447;28;20406;-82
2023/09/14 06:39:08;;;;;;;2.80;1.17;;;;;;;;;;5110158;28;20455;-83
2023/09/14 06:41:34;;;;;;;4.00;0.40;;;;;;;;;;5094404;28;20421;-83
2023/09/14 06:44:00;;;;;;;2.60;1.17;;;;;;;;;;5094377;28;20480;-82
2023/09/14 06:46:26;;;;;;;5.40;0.77;;;;;;;;;;5094290;28;20410;-82
2023/09/14 06:48:52;;;;;;;4.03;1.10;;;;;;;;;;5094075;28;20429;-82
2023/09/14 06:51:18;;;;;;;1.67;0.63;;;;;;;;;;5109509;28;20178;-83
2023/09/14 06:53:44;;;;;;;2.20;0.73;;;;;;;;;;5109778;28;20177;-83
2023/09/14 06:56:11;;;;;;;4.13;1.27;;;;;;;;;;5109878;28;20231;-83
2023/09/14 06:58:37;;;;;;;1.63;0.40;;;;;;;;;;5094226;28;20242;-83
2023/09/14 07:01:04;;;;;;;3.33;0.97;;;;;;;;;;5094102;28;20447;-87
2023/09/14 07:03:31;;;;;;;3.30;0.90;;;;;;;;;;5093804;28;20490;-82
2023/09/14 07:05:57;;;;;;;2.33;0.60;;;;;;;;;;5093700;28;20428;-82
2023/09/14 07:08:23;;;;;;;1.87;0.83;;;;;;;;;;5109551;28;20860;-86
2023/09/14 07:10:49;;;;;;;1.80;0.60;;;;;;;;;;5093859;28;20406;-81
2023/09/14 07:13:15;;;;;;;4.53;1.27;;;;;;;;;;5109630;28;20586;-82
2023/09/14 07:15:41;;;;;;;2.33;0.80;;;;;;;;;;5093632;28;20439;-82
2023/09/14 07:18:07;;;;;;;3.70;0.60;;;;;;;;;;5093758;28;20207;-82
2023/09/14 07:20:33;;;;;;;3.33;0.70;;;;;;;;;;5093288;28;20457;-82
2023/09/14 07:22:59;;;;;;;4.63;1.23;;;;;;;;;;5093680;28;20418;-82
2023/09/14 07:25:25;;;;;;;2.97;1.00;;;;;;;;;;5093631;28;20168;-81
2023/09/14 07:27:50;;;;;;;2.90;0.67;;;;;;;;;;5093222;28;20802;-79
2023/09/14 07:30:16;;;;;;;4.23;0.87;;;;;;;;;;5093538;28;20764;-79
2023/09/14 07:32:42;;;;;;;2.27;0.47;;;;;;;;;;5093457;28;20180;-79
2023/09/14 07:35:09;;;;;;;2.53;0.70;;;;;;;;;;5092977;28;20406;-79
2023/09/14 07:37:36;;;;;;;5.93;0.70;;;;;;;;;;5093473;28;20625;-81
2023/09/14 07:40:03;;;;;;;1.50;0.70;;;;;;;;;;5093878;28;20394;-83
2023/09/14 07:42:29;;;;;;;3.93;0.80;;;;;;;;;;5093334;28;20410;-81
2023/09/14 07:44:55;;;;;;;3.20;1.10;;;;;;;;;;5093405;28;20494;-80
2023/09/14 07:47:24;;;;;;;5.07;0.83;;;;;;;;;;5108886;28;20200;-80
2023/09/14 07:49:50;;;;;;;2.33;0.60;;;;;;;;;;5092968;28;20168;-80
2023/09/14 07:52:16;;;;;;;2.73;0.50;;;;;;;;;;5093288;28;20403;-80
2023/09/14 07:54:42;;;;;;;1.87;0.33;;;;;;;;;;5093271;28;20852;-81
2023/09/14 07:57:08;;;;;;;1.63;0.70;;;;;;;;;;5093282;28;20501;-81
2023/09/14 07:59:34;;;;;;;1.47;0.53;;;;;;;;;;5093153;28;20172;-81
2023/09/14 08:02:00;;;;;;;2.73;1.07;;;;;;;;;;5108648;28;20622;-81
2023/09/14 08:04:26;;;;;;;5.73;0.80;;;;;;;;;;5092869;28;20180;-80
2023/09/14 08:06:52;;;;;;;1.77;0.40;;;;;;;;;;5108751;28;20261;-81
2023/09/14 08:09:17;;;;;;;2.43;0.60;;;;;;;;;;5093059;28;20644;-81
2023/09/14 08:11:43;;;;;;;5.97;0.73;;;;;;;;;;5092723;28;20181;-81
2023/09/14 08:14:09;;;;;;;3.80;1.20;;;;;;;;;;5092647;28;20172;-81
2023/09/14 08:16:35;;;;;;;3.93;0.90;;;;;;;;;;5092748;28;20190;-81
2023/09/14 08:19:01;;;;;;;5.30;0.70;;;;;;;;;;5092525;28;20710;-82
2023/09/14 08:21:27;;;;;;;4.13;0.80;;;;;;;;;;5092904;28;20173;-82
2023/09/14 08:23:53;;;;;;;2.50;0.53;;;;;;;;;;5092882;28;20169;-83
2023/09/14 08:26:19;;;;;;;2.17;0.53;;;;;;;;;;5092770;28;20176;-82
2023/09/14 08:28:45;;;;;;;2.43;1.00;;;;;;;;;;5092831;28;20449;-82
2023/09/14 08:31:11;;;;;;;5.30;1.10;;;;;;;;;;5092897;28;20437;-82
2023/09/14 08:33:37;;;;;;;2.73;0.80;;;;;;;;;;5092672;28;20276;-82
2023/09/14 08:36:03;;;;;;;2.10;1.07;;;;;;;;;;5092431;28;20502;-82
2023/09/14 08:38:29;;;;;;;2.50;0.50;;;;;;;;;;5092765;28;20203;-82
2023/09/14 08:40:57;;;;;;;5.13;0.73;;;;;;;;;;5096075;28;20743;-82
2023/09/14 08:43:24;;;;;;;3.00;0.70;;;;;;;;;;5096619;28;20255;-82
2023/09/14 08:45:50;;;;;;;1.90;0.47;;;;;;;;;;5096580;28;20418;-82
2023/09/14 08:48:17;;;;;;;2.73;0.80;;;;;;;;;;5096498;28;20465;-82
2023/09/14 08:50:44;;;;;;;2.07;0.57;;;;;;;;;;5096237;28;20481;-82
2023/09/14 08:53:11;;;;;;;2.07;0.80;;;;;;;;;;5095287;28;20406;-82
2023/09/14 08:55:38;;;;;;;2.67;0.60;;;;;;;;;;5096430;28;20412;-82
2023/09/14 08:58:04;;;;;;;4.47;1.17;;;;;;;;;;5096423;28;20407;-82
2023/09/14 09:00:31;;;;;;;3.30;1.17;;;;;;;;;;5096346;28;20822;-82
2023/09/14 09:02:58;;;;;;;5.30;1.27;;;;;;;;;;5094099;28;20473;-80
2023/09/14 09:05:24;;;;;;;3.80;0.60;;;;;;;;;;5094281;28;20411;-80
2023/09/14 09:07:51;;;;;;;1.57;0.43;;;;;;;;;;5094773;28;20465;-81
2023/09/14 09:10:21;;;;;;;1.80;0.30;;;;;;;;;;5095021;28;20411;-82
2023/09/14 09:12:47;;;;;;;4.33;0.53;;;;;;;;;;5079992;28;20931;-82
2023/09/14 09:15:14;;;;;;;3.23;0.40;;;;;;;;;;5074421;28;20484;-80
2023/09/14 09:17:40;;;;;;;1.57;0.50;;;;;;;;;;5074983;28;20433;-83
2023/09/14 09:20:22;;;;;;;3.53;0.77;;;;;;;;;;5074854;28;20493;-83
2023/09/14 09:22:50;;;;;;;2.60;0.47;;;;;;;;;;5074934;28;20498;-81
2023/09/14 09:25:17;;;;;;;1.67;0.50;;;;;;;;;;5090517;28;20422;-82
2023/09/14 09:27:43;;;;;;;3.37;0.50;;;;;;;;;;5074847;28;20531;-83
2023/09/14 09:30:09;;;;;;;2.63;0.40;;;;;;;;;;5074795;28;20887;-82
2023/09/14 09:32:38;;;;;;;4.80;0.90;;;;;;;;;;5074777;28;20206;-81
2023/09/14 09:35:20;;;;;;;2.90;0.50;;;;;;;;;;5074577;28;20407;-81
2023/09/14 09:37:47;;;;;;;4.30;0.30;;;;;;;;;;5090237;28;20430;-82
2023/09/14 09:40:16;;;;;;;1.97;0.40;;;;;;;;;;5074767;28;20415;-82
2023/09/14 09:42:42;;;;;;;1.70;0.30;;;;;;;;;;5074682;28;20412;-83
2023/09/14 09:45:09;;;;;;;4.60;0.37;;;;;;;;;;5074709;28;20494;-82
2023/09/14 09:47:38;;;;;;;3.10;0.30;;;;;;;;;;5074523;28;20471;-82
2023/09/14 09:50:09;;;;;;;2.40;0.50;;;;;;;;;;5074128;28;20410;-82
2023/09/14 09:52:35;;;;;;;1.30;0.30;;;;;;;;;;5074557;28;20506;-82
2023/09/14 09:55:01;;;;;;;1.80;0.20;;;;;;;;;;5090229;28;20474;-82
2023/09/14 09:57:29;;;;;;;5.70;0.50;;;;;;;;;;5074394;28;20415;-81
2023/09/14 09:59:55;;;;;;;2.93;0.37;;;;;;;;;;5074545;28;20403;-81
2023/09/14 10:02:31;;;;;;;2.03;0.60;;;;;;;;;;5074057;28;20545;-81
2023/09/14 10:04:57;;;;;;;3.30;0.67;;;;;;;;;;5074157;28;20429;-81
2023/09/14 10:07:23;;;;;;;2.13;0.30;;;;;;;;;;5074243;28;20575;-81
2023/09/14 10:09:55;;;;;;;2.70;0.40;;;;;;;;;;5074210;28;20403;-81
2023/09/14 10:12:26;;;;;;;3.33;0.23;;;;;;;;;;5074145;28;20181;-81
2023/09/14 10:14:54;;;;;;;2.07;0.37;;;;;;;;;;5074174;28;20412;-81
2023/09/14 10:17:24;;;;;;;1.33;0.30;;;;;;;;;;5074046;28;20426;-81
2023/09/14 10:19:51;;;;;;;1.27;0.20;;;;;;;;;;5089215;28;20415;-81
2023/09/14 10:22:18;;;;;;;1.53;0.30;;;;;;;;;;5073931;28;20419;-81
2023/09/14 10:24:44;;;;;;;3.00;0.20;;;;;;;;;;5089368;28;20497;-82
2023/09/14 10:27:10;;;;;;;1.77;0.30;;;;;;;;;;5093953;28;20470;-81
2023/09/14 10:29:39;;;;;;;2.37;0.53;;;;;;;;;;5094109;28;20509;-81
2023/09/14 10:32:05;;;;;;;4.20;0.70;;;;;;;;;;5093843;28;20411;-81
2023/09/14 10:34:31;;;;;;;2.77;0.80;;;;;;;;;;5093648;28;20928;-81
2023/09/14 10:36:59;;;;;;;4.40;0.70;;;;;;;;;;5092568;28;20513;-81
2023/09/14 10:39:26;;;;;;;1.83;0.53;;;;;;;;;;5093937;28;20410;-81
2023/09/14 10:41:52;;;;;;;2.93;0.67;;;;;;;;;;5093890;28;20413;-81
2023/09/14 10:44:18;;;;;;;1.80;0.50;;;;;;;;;;5093653;28;20899;-83
2023/09/14 10:46:45;;;;;;;3.77;0.33;;;;;;;;;;5093380;28;20200;-81
2023/09/14 10:49:11;;;;;;;1.13;0.20;;;;;;;;;;5093282;28;20263;-80
2023/09/14 10:51:37;;;;;;;2.77;0.40;;;;;;;;;;5093711;28;20974;-81
2023/09/14 10:54:03;;;;;;;1.50;0.40;;;;;;;;;;5093530;28;20557;-82
2023/09/14 10:56:33;;;;;;;2.70;0.50;;;;;;;;;;5093726;28;20422;-82
2023/09/14 10:58:59;;;;;;;2.93;0.50;;;;;;;;;;5093370;28;20410;-81
2023/09/14 11:01:26;;;;;;;1.87;0.37;;;;;;;;;;5093219;28;20449;-81
2023/09/14 11:04:13;;;;;;;5.23;0.50;;;;;;;;;;5091273;28;20430;-83
2023/09/14 11:06:46;;;;;;;3.07;0.50;;;;;;;;;;5093308;28;20461;-82
2023/09/14 11:09:14;;;;;;;1.57;0.30;;;;;;;;;;5093539;28;20410;-83
2023/09/14 11:11:40;;;;;;;5.20;0.47;;;;;;;;;;5093260;28;20398;-80
2023/09/14 11:14:10;;;;;;;2.87;0.80;;;;;;;;;;5093318;28;20834;-81
2023/09/14 11:16:46;;;;;;;2.23;0.80;;;;;;;;;;5093162;28;20403;-80
2023/09/14 11:19:31;;;;;;;2.97;0.30;;;;;;;;;;5091305;28;20916;-80
2023/09/14 11:22:23;;;;;;;1.77;0.50;;;;;;;;;;5091648;28;20936;-80
2023/09/14 11:24:49;;;;;;;1.97;0.20;;;;;;;;;;5090210;28;20424;-81
2023/09/14 11:27:19;;;;;;;2.50;0.33;;;;;;;;;;5091872;28;20473;-81
2023/09/14 11:29:45;;;;;;;3.43;0.93;;;;;;;;;;5090915;28;20546;-82
2023/09/14 11:32:12;;;;;;;2.30;0.40;;;;;;;;;;5092277;28;20464;-82
2023/09/14 11:34:38;;;;;;;1.70;0.30;;;;;;;;;;5091981;28;20914;-81
2023/09/14 11:37:05;;;;;;;3.53;0.63;;;;;;;;;;5092397;28;20493;-83
2023/09/14 11:39:31;;;;;;;2.33;0.50;;;;;;;;;;5092452;28;20422;-87
2023/09/14 11:42:01;;;;;;;3.50;0.40;;;;;;;;;;5092321;28;20413;-82
2023/09/14 11:44:31;;;;;;;3.63;0.73;;;;;;;;;;5091946;28;20418;-81
2023/09/14 11:46:59;;;;;;;4.27;0.77;;;;;;;;;;5092016;28;20465;-84
2023/09/14 11:49:32;;;;;;;4.17;0.30;;;;;;;;;;5091919;28;20786;-82
2023/09/14 11:51:59;;;;;;;1.70;0.27;;;;;;;;;;5092222;28;20819;-82
2023/09/14 11:54:31;;;;;;;1.73;0.57;;;;;;;;;;5092142;28;20475;-81
2023/09/14 11:57:00;;;;;;;3.50;0.63;;;;;;;;;;5092118;28;20778;-81
2023/09/14 11:59:29;;;;;;;2.27;0.90;;;;;;;;;;5092422;28;20467;-78
2023/09/14 12:01:55;;;;;;;1.90;0.30;;;;;;;;;;5092987;28;20465;-80
2023/09/14 12:04:24;;;;;;;3.50;0.30;;;;;;;;;;5092748;28;20406;-79
2023/09/14 12:06:51;;;;;;;1.67;0.50;;;;;;;;;;5092347;28;20461;-79
2023/09/14 12:09:17;;;;;;;1.90;0.37;;;;;;;;;;5093096;28;20508;-81
2023/09/14 12:11:44;;;;;;;1.57;0.50;;;;;;;;;;5093001;28;20954;-79
2023/09/14 12:14:10;;;;;;;1.90;0.40;;;;;;;;;;5093269;28;20263;-81
2023/09/14 12:16:38;;;;;;;4.83;0.53;;;;;;;;;;5095865;28;20958;-78
2023/09/14 12:19:04;;;;;;;2.60;0.43;;;;;;;;;;5096731;28;20440;-77
2023/09/14 12:21:30;;;;;;;4.00;0.43;;;;;;;;;;5095346;28;20418;-79
2023/09/14 12:23:56;;;;;;;2.27;0.50;;;;;;;;;;5096976;28;20795;-80
2023/09/14 12:26:22;;;;;;;2.80;0.50;;;;;;;;;;5096902;28;20176;-79
2023/09/14 12:28:53;;;;;;;3.30;0.43;;;;;;;;;;5096895;28;20880;-79
2023/09/14 12:31:19;;;;;;;2.10;0.40;;;;;;;;;;5096942;28;20450;-78
2023/09/14 12:33:45;;;;;;;1.87;0.40;;;;;;;;;;5096495;28;20422;-78
2023/09/14 12:36:11;;;;;;;2.67;0.70;;;;;;;;;;5096813;28;20398;-78
2023/09/14 12:38:40;;;;;;;1.90;0.30;;;;;;;;;;5096506;28;20169;-78
2023/09/14 12:41:06;;;;;;;2.80;0.40;;;;;;;;;;5096060;28;20253;-79
2023/09/14 12:43:33;;;;;;;3.47;0.73;;;;;;;;;;5096144;28;20418;-78
2023/09/14 12:45:59;;;;;;;2.87;0.90;;;;;;;;;;5096054;28;20858;-79
2023/09/14 12:48:28;;;;;;;2.80;0.40;;;;;;;;;;5095610;28;20466;-77
2023/09/14 12:50:56;;;;;;;2.00;0.57;;;;;;;;;;5093765;28;20403;-79
2023/09/14 12:53:25;;;;;;;1.50;0.40;;;;;;;;;;5096028;28;20494;-78
2023/09/14 12:55:53;;;;;;;2.50;0.40;;;;;;;;;;5096098;28;20406;-80
2023/09/14 12:58:22;;;;;;;1.77;0.67;;;;;;;;;;5096205;28;20424;-79
2023/09/14 13:00:50;;;;;;;0.90;0.33;;;;;;;;;;5096372;28;20398;-79
2023/09/14 13:03:19;;;;;;;1.10;0.40;;;;;;;;;;5095785;28;20457;-78
2023/09/14 13:05:46;;;;;;;1.23;0.30;;;;;;;;;;5094613;28;20414;-79
2023/09/14 13:08:12;;;;;;;3.13;0.77;;;;;;;;;;5093960;28;20466;-79
2023/09/14 13:10:38;;;;;;;1.63;0.50;;;;;;;;;;5094334;28;20406;-77
2023/09/14 13:13:11;;;;;;;1.17;0.30;;;;;;;;;;5095399;28;20421;-78
2023/09/14 13:15:41;;;;;;;4.03;0.40;;;;;;;;;;5092430;28;20922;-78
2023/09/14 13:18:08;;;;;;;2.87;0.50;;;;;;;;;;5095056;28;20406;-78
2023/09/14 13:20:36;;;;;;;2.50;0.30;;;;;;;;;;5095399;28;20754;-79
2023/09/14 13:23:03;;;;;;;2.50;0.40;;;;;;;;;;5095437;28;20411;-79
2023/09/14 13:25:29;;;;;;;3.70;0.30;;;;;;;;;;5094709;28;20443;-78
2023/09/14 13:27:56;;;;;;;3.30;1.17;;;;;;;;;;5095406;28;20498;-78
2023/09/14 13:30:23;;;;;;;2.53;0.67;;;;;;;;;;5094561;28;20414;-78
2023/09/14 13:32:49;;;;;;;2.90;0.90;;;;;;;;;;5095758;28;20558;-77
2023/09/14 13:35:15;;;;;;;4.80;0.67;;;;;;;;;;5095347;28;20414;-78
2023/09/14 13:37:42;;;;;;;2.83;0.77;;;;;;;;;;5095674;28;20412;-77
2023/09/14 13:40:14;;;;;;;2.60;0.50;;;;;;;;;;5095348;28;20493;-77
2023/09/14 13:42:41;;;;;;;2.43;0.50;;;;;;;;;;5095111;28;20414;-78
2023/09/14 13:45:07;;;;;;;3.37;0.60;;;;;;;;;;5095223;28;20405;-77
2023/09/14 13:47:34;;;;;;;1.53;0.20;;;;;;;;;;5094099;28;20475;-77
2023/09/14 13:49:59;;;;;;;2.23;0.40;;;;;;;;;;5095035;28;20438;-79
2023/09/14 13:52:25;;;;;;;1.83;0.40;;;;;;;;;;5075380;28;20427;-77
2023/09/14 13:54:51;;;;;;;4.13;0.40;;;;;;;;;;5075027;28;20191;-79
2023/09/14 13:57:18;;;;;;;1.50;0.50;;;;;;;;;;5074993;28;20441;-78
2023/09/14 13:59:49;;;;;;;2.50;0.30;;;;;;;;;;5075010;28;20262;-77
2023/09/14 14:02:14;;;;;;;0.80;0.20;;;;;;;;;;5075795;28;20456;-77
2023/09/14 14:04:44;;;;;;;4.53;1.13;;;;;;;;;;5094274;28;20416;-78
2023/09/14 14:07:11;;;;;;;2.20;0.60;;;;;;;;;;5094710;28;20206;-77
2023/09/14 14:09:37;;;;;;;2.13;0.40;;;;;;;;;;5094540;28;20872;-77
2023/09/14 14:12:04;;;;;;;4.40;0.87;;;;;;;;;;5094720;28;20409;-77
2023/09/14 14:14:30;;;;;;;2.47;0.40;;;;;;;;;;5092824;28;20433;-78
2023/09/14 14:16:57;;;;;;;2.73;0.97;;;;;;;;;;5090728;28;20908;-79
2023/09/14 14:19:23;;;;;;;1.70;0.70;;;;;;;;;;5093873;28;20172;-79
2023/09/14 14:21:49;;;;;;;1.67;0.40;;;;;;;;;;5094503;28;20413;-78
2023/09/14 14:24:15;;;;;;;1.93;0.63;;;;;;;;;;5093048;28;20456;-80
2023/09/14 14:26:42;;;;;;;1.40;0.50;;;;;;;;;;5093360;28;20447;-81
2023/09/14 14:29:08;;;;;;;4.20;1.80;;;;;;;;;;5093579;28;20243;-79
2023/09/14 14:31:34;;;;;;;3.20;1.00;;;;;;;;;;5093490;28;20404;-80
2023/09/14 14:34:00;;;;;;;3.67;0.60;;;;;;;;;;5092744;28;20174;-79
2023/09/14 14:36:26;;;;;;;3.00;0.30;;;;;;;;;;5092638;28;20412;-79
2023/09/14 14:38:52;;;;;;;1.20;0.40;;;;;;;;;;5092893;28;20263;-81
2023/09/14 14:41:18;;;;;;;3.63;0.70;;;;;;;;;;5093309;28;20408;-79